sensor_id;sensor_type;location;lat;lon;timestamp;P1;durP1;ratioP1;P2;durP2;ratioP2
9465;SDS011;4771;48.726;9.006;2023-03-14T00:01:37;1.30;;;1.00;;
9465;SDS011;4771;48.726;9.006;2023-03-14T00:04:04;1.00;;;0.90;;
9465;SDS011;4771;48.726;9.006;2023-03-14T00:06:31;2.30;;;1.07;;
9465;SDS011;4771;48.726;9.006;2023-03-14T00:08:58;1.70;;;0.90;;
9465;SDS011;4771;48.726;9.006;2023-03-14T00:11:24;2.47;;;1.20;;
9465;SDS011;4771;48.726;9.006;2023-03-14T00:13:52;1.00;;;0.90;;
9465;SDS011;4771;48.726;9.006;2023-03-14T00:16:19;1.87;;;1.20;;
9465;SDS011;4771;48.726;9.006;2023-03-14T00:18:48;1.40;;;1.07;;
9465;SDS011;4771;48.726;9.006;2023-03-14T00:21:15;2.73;;;0.73;;
9465;SDS011;4771;48.726;9.006;2023-03-14T00:23:42;1.60;;;1.00;;
9465;SDS011;4771;48.726;9.006;2023-03-14T00:26:10;1.27;;;0.93;;
9465;SDS011;4771;48.726;9.006;2023-03-14T00:28:38;1.83;;;1.00;;
9465;SDS011;4771;48.726;9.006;2023-03-14T00:31:06;1.50;;;1.00;;
9465;SDS011;4771;48.726;9.006;2023-03-14T00:33:34;1.27;;;1.00;;
9465;SDS011;4771;48.726;9.006;2023-03-14T00:36:04;1.80;;;1.10;;
9465;SDS011;4771;48.726;9.006;2023-03-14T00:38:33;1.13;;;1.03;;
9465;SDS011;4771;48.726;9.006;2023-03-14T00:41:02;2.07;;;1.00;;
9465;SDS011;4771;48.726;9.006;2023-03-14T00:43:29;1.50;;;0.90;;
9465;SDS011;4771;48.726;9.006;2023-03-14T00:45:56;1.10;;;0.90;;
9465;SDS011;4771;48.726;9.006;2023-03-14T00:48:23;1.23;;;1.00;;
9465;SDS011;4771;48.726;9.006;2023-03-14T00:50:50;1.67;;;1.20;;
9465;SDS011;4771;48.726;9.006;2023-03-14T00:53:18;1.83;;;1.10;;
9465;SDS011;4771;48.726;9.006;2023-03-14T00:55:45;2.00;;;0.90;;
9465;SDS011;4771;48.726;9.006;2023-03-14T00:58:13;1.50;;;1.00;;
9465;SDS011;4771;48.726;9.006;2023-03-14T01:00:41;0.80;;;0.80;;
9465;SDS011;4771;48.726;9.006;2023-03-14T01:03:09;1.23;;;1.00;;
9465;SDS011;4771;48.726;9.006;2023-03-14T01:05:37;3.93;;;1.40;;
9465;SDS011;4771;48.726;9.006;2023-03-14T01:08:04;1.73;;;1.00;;
9465;SDS011;4771;48.726;9.006;2023-03-14T01:10:33;3.47;;;1.23;;
9465;SDS011;4771;48.726;9.006;2023-03-14T01:13:00;1.33;;;1.00;;
9465;SDS011;4771;48.726;9.006;2023-03-14T01:15:27;1.37;;;0.70;;
9465;SDS011;4771;48.726;9.006;2023-03-14T01:17:54;1.20;;;1.00;;
9465;SDS011;4771;48.726;9.006;2023-03-14T01:20:21;1.07;;;0.80;;
9465;SDS011;4771;48.726;9.006;2023-03-14T01:22:47;0.90;;;0.80;;
9465;SDS011;4771;48.726;9.006;2023-03-14T01:25:15;1.40;;;0.80;;
9465;SDS011;4771;48.726;9.006;2023-03-14T01:27:44;0.73;;;0.73;;
9465;SDS011;4771;48.726;9.006;2023-03-14T01:30:11;2.50;;;1.10;;
9465;SDS011;4771;48.726;9.006;2023-03-14T01:32:39;1.33;;;0.83;;
9465;SDS011;4771;48.726;9.006;2023-03-14T01:35:06;0.77;;;0.77;;
9465;SDS011;4771;48.726;9.006;2023-03-14T01:37:33;0.90;;;0.90;;
9465;SDS011;4771;48.726;9.006;2023-03-14T01:40:00;2.03;;;0.83;;
9465;SDS011;4771;48.726;9.006;2023-03-14T01:42:28;1.83;;;1.00;;
9465;SDS011;4771;48.726;9.006;2023-03-14T01:44:57;1.70;;;1.00;;
9465;SDS011;4771;48.726;9.006;2023-03-14T01:47:26;3.10;;;0.93;;
9465;SDS011;4771;48.726;9.006;2023-03-14T01:49:53;1.93;;;1.10;;
9465;SDS011;4771;48.726;9.006;2023-03-14T01:52:24;1.00;;;0.90;;
9465;SDS011;4771;48.726;9.006;2023-03-14T01:54:54;0.90;;;0.80;;
9465;SDS011;4771;48.726;9.006;2023-03-14T01:57:27;1.20;;;0.90;;
9465;SDS011;4771;48.726;9.006;2023-03-14T01:59:59;0.80;;;0.80;;
9465;SDS011;4771;48.726;9.006;2023-03-14T02:02:33;0.97;;;0.90;;
9465;SDS011;4771;48.726;9.006;2023-03-14T02:05:01;0.63;;;0.60;;
9465;SDS011;4771;48.726;9.006;2023-03-14T02:07:30;1.27;;;0.90;;
9465;SDS011;4771;48.726;9.006;2023-03-14T02:10:03;0.80;;;0.80;;
9465;SDS011;4771;48.726;9.006;2023-03-14T02:12:31;2.17;;;0.80;;
9465;SDS011;4771;48.726;9.006;2023-03-14T02:15:01;1.13;;;0.80;;
9465;SDS011;4771;48.726;9.006;2023-03-14T02:17:28;3.20;;;0.80;;
9465;SDS011;4771;48.726;9.006;2023-03-14T02:20:00;2.00;;;0.77;;
9465;SDS011;4771;48.726;9.006;2023-03-14T02:22:40;0.80;;;0.80;;
9465;SDS011;4771;48.726;9.006;2023-03-14T02:25:09;0.80;;;0.80;;
9465;SDS011;4771;48.726;9.006;2023-03-14T02:27:42;1.67;;;0.83;;
9465;SDS011;4771;48.726;9.006;2023-03-14T02:30:11;0.70;;;0.70;;
9465;SDS011;4771;48.726;9.006;2023-03-14T02:32:41;0.77;;;0.70;;
9465;SDS011;4771;48.726;9.006;2023-03-14T02:35:11;1.60;;;0.90;;
9465;SDS011;4771;48.726;9.006;2023-03-14T02:37:41;1.47;;;1.00;;
9465;SDS011;4771;48.726;9.006;2023-03-14T02:40:12;1.00;;;0.77;;
9465;SDS011;4771;48.726;9.006;2023-03-14T02:42:39;1.17;;;0.77;;
9465;SDS011;4771;48.726;9.006;2023-03-14T02:48:09;1.10;;;0.87;;
9465;SDS011;4771;48.726;9.006;2023-03-14T02:50:40;0.67;;;0.67;;
9465;SDS011;4771;48.726;9.006;2023-03-14T02:53:08;1.87;;;1.00;;
9465;SDS011;4771;48.726;9.006;2023-03-14T02:55:35;0.80;;;0.70;;
9465;SDS011;4771;48.726;9.006;2023-03-14T02:58:01;2.63;;;1.07;;
9465;SDS011;4771;48.726;9.006;2023-03-14T03:00:28;1.87;;;0.80;;
9465;SDS011;4771;48.726;9.006;2023-03-14T03:02:55;2.53;;;1.00;;
9465;SDS011;4771;48.726;9.006;2023-03-14T03:05:23;1.63;;;0.90;;
9465;SDS011;4771;48.726;9.006;2023-03-14T03:07:50;3.87;;;1.20;;
9465;SDS011;4771;48.726;9.006;2023-03-14T03:10:17;2.73;;;0.90;;
9465;SDS011;4771;48.726;9.006;2023-03-14T03:12:44;2.33;;;0.93;;
9465;SDS011;4771;48.726;9.006;2023-03-14T03:15:11;3.27;;;0.90;;
9465;SDS011;4771;48.726;9.006;2023-03-14T03:17:37;1.70;;;1.00;;
9465;SDS011;4771;48.726;9.006;2023-03-14T03:20:04;2.63;;;1.10;;
9465;SDS011;4771;48.726;9.006;2023-03-14T03:22:35;1.30;;;1.20;;
9465;SDS011;4771;48.726;9.006;2023-03-14T03:25:05;4.53;;;0.90;;
9465;SDS011;4771;48.726;9.006;2023-03-14T03:27:33;3.33;;;1.10;;
9465;SDS011;4771;48.726;9.006;2023-03-14T03:30:02;1.43;;;1.00;;
9465;SDS011;4771;48.726;9.006;2023-03-14T03:32:30;2.13;;;1.10;;
9465;SDS011;4771;48.726;9.006;2023-03-14T03:34:57;1.93;;;1.10;;
9465;SDS011;4771;48.726;9.006;2023-03-14T03:37:24;4.63;;;1.17;;
9465;SDS011;4771;48.726;9.006;2023-03-14T03:39:52;2.87;;;1.10;;
9465;SDS011;4771;48.726;9.006;2023-03-14T03:42:19;3.03;;;1.30;;
9465;SDS011;4771;48.726;9.006;2023-03-14T03:44:45;3.17;;;0.87;;
9465;SDS011;4771;48.726;9.006;2023-03-14T03:47:13;3.20;;;1.23;;
9465;SDS011;4771;48.726;9.006;2023-03-14T03:49:40;3.50;;;1.10;;
9465;SDS011;4771;48.726;9.006;2023-03-14T03:52:07;2.93;;;1.03;;
9465;SDS011;4771;48.726;9.006;2023-03-14T03:54:34;3.07;;;1.40;;
9465;SDS011;4771;48.726;9.006;2023-03-14T03:57:03;5.00;;;1.47;;
9465;SDS011;4771;48.726;9.006;2023-03-14T03:59:29;1.80;;;1.10;;
9465;SDS011;4771;48.726;9.006;2023-03-14T04:01:56;2.37;;;1.10;;
9465;SDS011;4771;48.726;9.006;2023-03-14T04:04:23;4.20;;;1.27;;
9465;SDS011;4771;48.726;9.006;2023-03-14T04:06:50;2.90;;;1.03;;
9465;SDS011;4771;48.726;9.006;2023-03-14T04:09:17;3.03;;;1.20;;
9465;SDS011;4771;48.726;9.006;2023-03-14T04:11:43;4.50;;;1.20;;
9465;SDS011;4771;48.726;9.006;2023-03-14T04:14:11;4.37;;;1.33;;
9465;SDS011;4771;48.726;9.006;2023-03-14T04:16:38;5.03;;;1.30;;
9465;SDS011;4771;48.726;9.006;2023-03-14T04:19:05;6.10;;;1.40;;
9465;SDS011;4771;48.726;9.006;2023-03-14T04:21:32;3.13;;;1.30;;
9465;SDS011;4771;48.726;9.006;2023-03-14T04:23:59;3.20;;;1.23;;
9465;SDS011;4771;48.726;9.006;2023-03-14T04:26:26;4.33;;;1.33;;
9465;SDS011;4771;48.726;9.006;2023-03-14T04:28:52;3.00;;;1.10;;
9465;SDS011;4771;48.726;9.006;2023-03-14T04:31:21;4.80;;;1.40;;
9465;SDS011;4771;48.726;9.006;2023-03-14T04:33:48;2.90;;;1.10;;
9465;SDS011;4771;48.726;9.006;2023-03-14T04:36:15;5.03;;;1.27;;
9465;SDS011;4771;48.726;9.006;2023-03-14T04:38:42;1.97;;;1.00;;
9465;SDS011;4771;48.726;9.006;2023-03-14T04:41:08;3.17;;;1.47;;
9465;SDS011;4771;48.726;9.006;2023-03-14T04:43:35;4.53;;;1.47;;
9465;SDS011;4771;48.726;9.006;2023-03-14T04:46:02;2.40;;;1.13;;
9465;SDS011;4771;48.726;9.006;2023-03-14T04:48:31;4.90;;;1.27;;
9465;SDS011;4771;48.726;9.006;2023-03-14T04:50:57;3.53;;;1.53;;
9465;SDS011;4771;48.726;9.006;2023-03-14T04:53:24;3.20;;;1.23;;
9465;SDS011;4771;48.726;9.006;2023-03-14T04:55:52;3.63;;;1.30;;
9465;SDS011;4771;48.726;9.006;2023-03-14T04:58:20;6.47;;;1.30;;
9465;SDS011;4771;48.726;9.006;2023-03-14T05:00:48;3.93;;;1.40;;
9465;SDS011;4771;48.726;9.006;2023-03-14T05:03:15;4.07;;;1.30;;
9465;SDS011;4771;48.726;9.006;2023-03-14T05:05:43;3.30;;;1.07;;
9465;SDS011;4771;48.726;9.006;2023-03-14T05:08:10;1.73;;;1.00;;
9465;SDS011;4771;48.726;9.006;2023-03-14T05:10:38;4.30;;;1.20;;
9465;SDS011;4771;48.726;9.006;2023-03-14T05:13:04;2.33;;;1.20;;
9465;SDS011;4771;48.726;9.006;2023-03-14T05:15:31;4.77;;;1.20;;
9465;SDS011;4771;48.726;9.006;2023-03-14T05:17:58;2.90;;;1.10;;
9465;SDS011;4771;48.726;9.006;2023-03-14T05:20:25;5.47;;;1.13;;
9465;SDS011;4771;48.726;9.006;2023-03-14T05:22:53;3.87;;;1.20;;
9465;SDS011;4771;48.726;9.006;2023-03-14T05:25:20;2.77;;;1.20;;
9465;SDS011;4771;48.726;9.006;2023-03-14T05:27:47;4.67;;;1.40;;
9465;SDS011;4771;48.726;9.006;2023-03-14T05:30:14;2.93;;;1.17;;
9465;SDS011;4771;48.726;9.006;2023-03-14T05:32:40;2.97;;;1.00;;
9465;SDS011;4771;48.726;9.006;2023-03-14T05:35:08;3.10;;;1.27;;
9465;SDS011;4771;48.726;9.006;2023-03-14T05:37:34;4.50;;;1.17;;
9465;SDS011;4771;48.726;9.006;2023-03-14T05:40:03;2.43;;;1.13;;
9465;SDS011;4771;48.726;9.006;2023-03-14T05:42:31;3.33;;;1.23;;
9465;SDS011;4771;48.726;9.006;2023-03-14T05:44:58;4.67;;;1.10;;
9465;SDS011;4771;48.726;9.006;2023-03-14T05:47:25;3.50;;;1.30;;
9465;SDS011;4771;48.726;9.006;2023-03-14T05:49:52;3.97;;;1.00;;
9465;SDS011;4771;48.726;9.006;2023-03-14T05:52:19;3.33;;;1.23;;
9465;SDS011;4771;48.726;9.006;2023-03-14T05:54:47;2.03;;;1.17;;
9465;SDS011;4771;48.726;9.006;2023-03-14T05:57:15;3.43;;;1.17;;
9465;SDS011;4771;48.726;9.006;2023-03-14T05:59:42;4.20;;;1.23;;
9465;SDS011;4771;48.726;9.006;2023-03-14T06:02:09;4.90;;;1.43;;
9465;SDS011;4771;48.726;9.006;2023-03-14T06:04:36;2.67;;;1.00;;
9465;SDS011;4771;48.726;9.006;2023-03-14T06:07:02;3.00;;;1.20;;
9465;SDS011;4771;48.726;9.006;2023-03-14T06:09:29;5.63;;;1.27;;
9465;SDS011;4771;48.726;9.006;2023-03-14T06:11:56;5.00;;;1.10;;
9465;SDS011;4771;48.726;9.006;2023-03-14T06:14:24;2.47;;;1.00;;
9465;SDS011;4771;48.726;9.006;2023-03-14T06:16:51;4.60;;;1.10;;
9465;SDS011;4771;48.726;9.006;2023-03-14T06:19:18;6.67;;;1.23;;
9465;SDS011;4771;48.726;9.006;2023-03-14T06:21:46;2.03;;;1.10;;
9465;SDS011;4771;48.726;9.006;2023-03-14T06:24:13;2.47;;;1.00;;
9465;SDS011;4771;48.726;9.006;2023-03-14T06:26:39;3.60;;;1.13;;
9465;SDS011;4771;48.726;9.006;2023-03-14T06:29:06;1.50;;;0.90;;
9465;SDS011;4771;48.726;9.006;2023-03-14T06:31:35;2.17;;;1.07;;
9465;SDS011;4771;48.726;9.006;2023-03-14T06:34:02;2.33;;;1.13;;
9465;SDS011;4771;48.726;9.006;2023-03-14T06:36:29;3.23;;;1.40;;
9465;SDS011;4771;48.726;9.006;2023-03-14T06:38:56;2.20;;;0.90;;
9465;SDS011;4771;48.726;9.006;2023-03-14T06:41:22;3.70;;;1.00;;
9465;SDS011;4771;48.726;9.006;2023-03-14T06:43:51;3.17;;;1.00;;
9465;SDS011;4771;48.726;9.006;2023-03-14T06:46:18;5.80;;;1.40;;
9465;SDS011;4771;48.726;9.006;2023-03-14T06:48:46;5.50;;;1.40;;
9465;SDS011;4771;48.726;9.006;2023-03-14T06:51:13;1.10;;;0.80;;
9465;SDS011;4771;48.726;9.006;2023-03-14T06:53:39;2.47;;;1.00;;
9465;SDS011;4771;48.726;9.006;2023-03-14T06:56:07;2.67;;;0.97;;
9465;SDS011;4771;48.726;9.006;2023-03-14T06:58:34;2.80;;;1.00;;
9465;SDS011;4771;48.726;9.006;2023-03-14T07:01:01;1.43;;;1.03;;
9465;SDS011;4771;48.726;9.006;2023-03-14T07:03:28;1.90;;;1.07;;
9465;SDS011;4771;48.726;9.006;2023-03-14T07:05:56;2.20;;;1.00;;
9465;SDS011;4771;48.726;9.006;2023-03-14T07:08:24;2.10;;;1.20;;
9465;SDS011;4771;48.726;9.006;2023-03-14T07:10:51;0.97;;;0.70;;
9465;SDS011;4771;48.726;9.006;2023-03-14T07:13:18;4.07;;;0.97;;
9465;SDS011;4771;48.726;9.006;2023-03-14T07:15:45;1.87;;;0.67;;
9465;SDS011;4771;48.726;9.006;2023-03-14T07:18:12;2.17;;;0.80;;
9465;SDS011;4771;48.726;9.006;2023-03-14T07:20:38;2.37;;;1.00;;
9465;SDS011;4771;48.726;9.006;2023-03-14T07:23:07;1.63;;;0.73;;
9465;SDS011;4771;48.726;9.006;2023-03-14T07:25:33;1.77;;;1.00;;
9465;SDS011;4771;48.726;9.006;2023-03-14T07:28:00;2.23;;;0.80;;
9465;SDS011;4771;48.726;9.006;2023-03-14T07:30:27;2.90;;;0.80;;
9465;SDS011;4771;48.726;9.006;2023-03-14T07:32:54;3.67;;;1.03;;
9465;SDS011;4771;48.726;9.006;2023-03-14T07:35:21;2.00;;;0.80;;
9465;SDS011;4771;48.726;9.006;2023-03-14T07:37:47;1.93;;;0.77;;
9465;SDS011;4771;48.726;9.006;2023-03-14T07:40:16;1.53;;;1.00;;
9465;SDS011;4771;48.726;9.006;2023-03-14T07:42:43;2.10;;;0.80;;
9465;SDS011;4771;48.726;9.006;2023-03-14T07:45:10;2.07;;;0.90;;
9465;SDS011;4771;48.726;9.006;2023-03-14T07:47:37;1.80;;;1.03;;
9465;SDS011;4771;48.726;9.006;2023-03-14T07:50:04;3.20;;;0.87;;
9465;SDS011;4771;48.726;9.006;2023-03-14T07:52:31;1.07;;;0.80;;
9465;SDS011;4771;48.726;9.006;2023-03-14T07:54:58;0.70;;;0.70;;
9465;SDS011;4771;48.726;9.006;2023-03-14T07:57:27;1.83;;;0.93;;
9465;SDS011;4771;48.726;9.006;2023-03-14T07:59:53;1.20;;;0.90;;
9465;SDS011;4771;48.726;9.006;2023-03-14T08:02:20;1.67;;;0.77;;
9465;SDS011;4771;48.726;9.006;2023-03-14T08:04:49;2.30;;;0.67;;
9465;SDS011;4771;48.726;9.006;2023-03-14T08:07:16;1.10;;;0.80;;
9465;SDS011;4771;48.726;9.006;2023-03-14T08:09:43;1.00;;;0.70;;
9465;SDS011;4771;48.726;9.006;2023-03-14T08:12:10;1.47;;;0.80;;
9465;SDS011;4771;48.726;9.006;2023-03-14T08:14:38;2.20;;;0.80;;
9465;SDS011;4771;48.726;9.006;2023-03-14T08:17:05;1.23;;;0.60;;
9465;SDS011;4771;48.726;9.006;2023-03-14T08:19:33;3.00;;;0.70;;
9465;SDS011;4771;48.726;9.006;2023-03-14T08:22:00;2.73;;;0.63;;
9465;SDS011;4771;48.726;9.006;2023-03-14T08:24:27;1.17;;;0.80;;
9465;SDS011;4771;48.726;9.006;2023-03-14T08:26:54;0.93;;;0.50;;
9465;SDS011;4771;48.726;9.006;2023-03-14T08:29:21;2.73;;;0.80;;
9465;SDS011;4771;48.726;9.006;2023-03-14T08:31:49;3.13;;;0.70;;
9465;SDS011;4771;48.726;9.006;2023-03-14T08:34:16;0.97;;;0.80;;
9465;SDS011;4771;48.726;9.006;2023-03-14T08:36:43;1.90;;;0.73;;
9465;SDS011;4771;48.726;9.006;2023-03-14T08:39:09;1.50;;;0.83;;
9465;SDS011;4771;48.726;9.006;2023-03-14T08:41:36;1.47;;;0.73;;
9465;SDS011;4771;48.726;9.006;2023-03-14T08:44:06;2.20;;;0.80;;
9465;SDS011;4771;48.726;9.006;2023-03-14T08:46:33;1.83;;;0.83;;
9465;SDS011;4771;48.726;9.006;2023-03-14T08:49:01;2.00;;;0.83;;
9465;SDS011;4771;48.726;9.006;2023-03-14T08:51:28;0.73;;;0.60;;
9465;SDS011;4771;48.726;9.006;2023-03-14T08:53:55;3.37;;;1.03;;
9465;SDS011;4771;48.726;9.006;2023-03-14T08:56:22;0.83;;;0.73;;
9465;SDS011;4771;48.726;9.006;2023-03-14T08:58:48;0.87;;;0.60;;
9465;SDS011;4771;48.726;9.006;2023-03-14T09:01:15;1.27;;;0.70;;
9465;SDS011;4771;48.726;9.006;2023-03-14T09:03:43;3.07;;;0.90;;
9465;SDS011;4771;48.726;9.006;2023-03-14T09:06:12;1.10;;;0.70;;
9465;SDS011;4771;48.726;9.006;2023-03-14T09:08:39;2.90;;;0.80;;
9465;SDS011;4771;48.726;9.006;2023-03-14T09:11:06;2.43;;;0.80;;
9465;SDS011;4771;48.726;9.006;2023-03-14T09:13:34;2.03;;;1.03;;
9465;SDS011;4771;48.726;9.006;2023-03-14T09:16:01;0.70;;;0.70;;
9465;SDS011;4771;48.726;9.006;2023-03-14T09:18:28;1.00;;;0.90;;
9465;SDS011;4771;48.726;9.006;2023-03-14T09:20:55;2.47;;;0.87;;
9465;SDS011;4771;48.726;9.006;2023-03-14T09:23:24;2.77;;;0.80;;
9465;SDS011;4771;48.726;9.006;2023-03-14T09:25:53;1.53;;;0.60;;
9465;SDS011;4771;48.726;9.006;2023-03-14T09:28:21;1.10;;;0.80;;
9465;SDS011;4771;48.726;9.006;2023-03-14T09:30:47;1.60;;;0.77;;
9465;SDS011;4771;48.726;9.006;2023-03-14T09:33:14;1.33;;;0.53;;
9465;SDS011;4771;48.726;9.006;2023-03-14T09:35:41;1.10;;;0.80;;
9465;SDS011;4771;48.726;9.006;2023-03-14T09:38:08;0.60;;;0.60;;
9465;SDS011;4771;48.726;9.006;2023-03-14T09:40:37;2.13;;;0.73;;
9465;SDS011;4771;48.726;9.006;2023-03-14T09:43:04;0.73;;;0.60;;
9465;SDS011;4771;48.726;9.006;2023-03-14T09:45:33;1.03;;;0.70;;
9465;SDS011;4771;48.726;9.006;2023-03-14T09:48:02;0.93;;;0.60;;
9465;SDS011;4771;48.726;9.006;2023-03-14T09:50:31;2.43;;;0.77;;
9465;SDS011;4771;48.726;9.006;2023-03-14T09:53:06;1.10;;;0.80;;
9465;SDS011;4771;48.726;9.006;2023-03-14T09:55:39;1.20;;;0.70;;
9465;SDS011;4771;48.726;9.006;2023-03-14T09:58:09;0.50;;;0.47;;
9465;SDS011;4771;48.726;9.006;2023-03-14T10:00:38;1.87;;;0.70;;
9465;SDS011;4771;48.726;9.006;2023-03-14T10:03:21;0.40;;;0.40;;
9465;SDS011;4771;48.726;9.006;2023-03-14T10:05:58;0.50;;;0.50;;
9465;SDS011;4771;48.726;9.006;2023-03-14T10:08:25;1.10;;;0.70;;
9465;SDS011;4771;48.726;9.006;2023-03-14T10:10:54;0.77;;;0.30;;
9465;SDS011;4771;48.726;9.006;2023-03-14T10:13:21;0.97;;;0.40;;
9465;SDS011;4771;48.726;9.006;2023-03-14T10:15:52;0.93;;;0.50;;
9465;SDS011;4771;48.726;9.006;2023-03-14T10:18:20;0.80;;;0.60;;
9465;SDS011;4771;48.726;9.006;2023-03-14T10:20:49;0.73;;;0.50;;
9465;SDS011;4771;48.726;9.006;2023-03-14T10:23:30;0.30;;;0.30;;
9465;SDS011;4771;48.726;9.006;2023-03-14T10:26:02;1.27;;;0.77;;
9465;SDS011;4771;48.726;9.006;2023-03-14T10:28:32;0.47;;;0.47;;
9465;SDS011;4771;48.726;9.006;2023-03-14T10:31:01;0.47;;;0.47;;
9465;SDS011;4771;48.726;9.006;2023-03-14T10:33:29;0.40;;;0.40;;
9465;SDS011;4771;48.726;9.006;2023-03-14T10:35:59;1.33;;;0.60;;
9465;SDS011;4771;48.726;9.006;2023-03-14T10:38:27;0.50;;;0.50;;
9465;SDS011;4771;48.726;9.006;2023-03-14T10:40:55;0.83;;;0.60;;
9465;SDS011;4771;48.726;9.006;2023-03-14T10:43:25;0.70;;;0.70;;
9465;SDS011;4771;48.726;9.006;2023-03-14T10:45:57;0.67;;;0.60;;
9465;SDS011;4771;48.726;9.006;2023-03-14T10:48:30;0.70;;;0.63;;
9465;SDS011;4771;48.726;9.006;2023-03-14T10:51:02;1.07;;;0.60;;
9465;SDS011;4771;48.726;9.006;2023-03-14T10:53:39;1.70;;;0.80;;
9465;SDS011;4771;48.726;9.006;2023-03-14T10:56:09;0.90;;;0.60;;
9465;SDS011;4771;48.726;9.006;2023-03-14T10:58:40;0.77;;;0.77;;
9465;SDS011;4771;48.726;9.006;2023-03-14T11:01:29;0.40;;;0.40;;
9465;SDS011;4771;48.726;9.006;2023-03-14T11:04:05;0.53;;;0.53;;
9465;SDS011;4771;48.726;9.006;2023-03-14T11:06:41;1.13;;;0.70;;
9465;SDS011;4771;48.726;9.006;2023-03-14T11:09:13;0.60;;;0.60;;
9465;SDS011;4771;48.726;9.006;2023-03-14T11:11:47;0.97;;;0.60;;
9465;SDS011;4771;48.726;9.006;2023-03-14T11:14:18;0.60;;;0.60;;
9465;SDS011;4771;48.726;9.006;2023-03-14T11:16:53;1.47;;;0.60;;
9465;SDS011;4771;48.726;9.006;2023-03-14T11:19:29;1.70;;;0.67;;
9465;SDS011;4771;48.726;9.006;2023-03-14T11:22:04;0.50;;;0.50;;
9465;SDS011;4771;48.726;9.006;2023-03-14T11:24:41;0.67;;;0.60;;
9465;SDS011;4771;48.726;9.006;2023-03-14T11:27:18;0.60;;;0.60;;
9465;SDS011;4771;48.726;9.006;2023-03-14T11:29:54;1.23;;;1.10;;
9465;SDS011;4771;48.726;9.006;2023-03-14T11:32:27;1.07;;;0.67;;
9465;SDS011;4771;48.726;9.006;2023-03-14T11:35:03;0.90;;;0.50;;
9465;SDS011;4771;48.726;9.006;2023-03-14T11:37:36;0.57;;;0.57;;
9465;SDS011;4771;48.726;9.006;2023-03-14T11:40:08;0.80;;;0.70;;
9465;SDS011;4771;48.726;9.006;2023-03-14T11:42:41;0.80;;;0.50;;
9465;SDS011;4771;48.726;9.006;2023-03-14T11:47:41;0.60;;;0.60;;
9465;SDS011;4771;48.726;9.006;2023-03-14T11:50:12;0.40;;;0.40;;
9465;SDS011;4771;48.726;9.006;2023-03-14T11:52:44;0.60;;;0.60;;
9465;SDS011;4771;48.726;9.006;2023-03-14T11:55:17;0.70;;;0.70;;
9465;SDS011;4771;48.726;9.006;2023-03-14T11:57:51;0.40;;;0.40;;
9465;SDS011;4771;48.726;9.006;2023-03-14T12:00:23;2.33;;;1.40;;
9465;SDS011;4771;48.726;9.006;2023-03-14T12:02:53;0.77;;;0.60;;
9465;SDS011;4771;48.726;9.006;2023-03-14T12:08:38;1.20;;;1.10;;
9465;SDS011;4771;48.726;9.006;2023-03-14T12:11:12;0.50;;;0.50;;
9465;SDS011;4771;48.726;9.006;2023-03-14T12:13:45;0.50;;;0.50;;
9465;SDS011;4771;48.726;9.006;2023-03-14T12:16:30;0.80;;;0.80;;
9465;SDS011;4771;48.726;9.006;2023-03-14T12:24:53;0.53;;;0.53;;
9465;SDS011;4771;48.726;9.006;2023-03-14T12:27:43;0.97;;;0.70;;
9465;SDS011;4771;48.726;9.006;2023-03-14T12:30:17;0.60;;;0.60;;
9465;SDS011;4771;48.726;9.006;2023-03-14T12:39:00;0.80;;;0.80;;
9465;SDS011;4771;48.726;9.006;2023-03-14T12:41:36;0.90;;;0.70;;
9465;SDS011;4771;48.726;9.006;2023-03-14T12:50:18;0.70;;;0.70;;
9465;SDS011;4771;48.726;9.006;2023-03-14T12:53:21;2.23;;;0.93;;
9465;SDS011;4771;48.726;9.006;2023-03-14T12:56:11;2.83;;;0.70;;
9465;SDS011;4771;48.726;9.006;2023-03-14T12:59:13;0.80;;;0.80;;
9465;SDS011;4771;48.726;9.006;2023-03-14T13:02:13;1.17;;;0.90;;
9465;SDS011;4771;48.726;9.006;2023-03-14T13:04:49;2.43;;;1.00;;
9465;SDS011;4771;48.726;9.006;2023-03-14T13:10:30;0.97;;;0.80;;
9465;SDS011;4771;48.726;9.006;2023-03-14T13:13:14;1.83;;;1.10;;
9465;SDS011;4771;48.726;9.006;2023-03-14T13:15:46;1.93;;;0.87;;
9465;SDS011;4771;48.726;9.006;2023-03-14T13:18:16;1.17;;;0.73;;
9465;SDS011;4771;48.726;9.006;2023-03-14T13:20:48;1.53;;;1.00;;
9465;SDS011;4771;48.726;9.006;2023-03-14T13:23:21;1.37;;;0.90;;
9465;SDS011;4771;48.726;9.006;2023-03-14T13:25:51;0.80;;;0.77;;
9465;SDS011;4771;48.726;9.006;2023-03-14T13:28:18;3.63;;;1.20;;
9465;SDS011;4771;48.726;9.006;2023-03-14T13:30:46;1.40;;;0.90;;
9465;SDS011;4771;48.726;9.006;2023-03-14T13:33:16;4.20;;;1.10;;
9465;SDS011;4771;48.726;9.006;2023-03-14T13:35:44;1.07;;;0.87;;
9465;SDS011;4771;48.726;9.006;2023-03-14T13:38:15;1.57;;;1.00;;
9465;SDS011;4771;48.726;9.006;2023-03-14T13:40:43;3.73;;;1.00;;
9465;SDS011;4771;48.726;9.006;2023-03-14T13:43:15;1.53;;;1.17;;
9465;SDS011;4771;48.726;9.006;2023-03-14T13:45:45;1.37;;;1.07;;
9465;SDS011;4771;48.726;9.006;2023-03-14T13:48:17;2.67;;;1.20;;
9465;SDS011;4771;48.726;9.006;2023-03-14T13:50:46;1.10;;;0.97;;
9465;SDS011;4771;48.726;9.006;2023-03-14T13:53:17;2.40;;;0.97;;
9465;SDS011;4771;48.726;9.006;2023-03-14T13:55:44;4.20;;;1.10;;
9465;SDS011;4771;48.726;9.006;2023-03-14T13:58:23;1.70;;;1.00;;
9465;SDS011;4771;48.726;9.006;2023-03-14T14:03:39;1.07;;;0.97;;
9465;SDS011;4771;48.726;9.006;2023-03-14T14:06:10;0.97;;;0.80;;
9465;SDS011;4771;48.726;9.006;2023-03-14T14:08:46;1.07;;;0.80;;
9465;SDS011;4771;48.726;9.006;2023-03-14T14:11:16;2.40;;;1.13;;
9465;SDS011;4771;48.726;9.006;2023-03-14T14:13:49;2.93;;;0.93;;
9465;SDS011;4771;48.726;9.006;2023-03-14T14:16:16;2.20;;;0.97;;
9465;SDS011;4771;48.726;9.006;2023-03-14T14:18:48;2.93;;;1.00;;
9465;SDS011;4771;48.726;9.006;2023-03-14T14:21:15;1.97;;;1.00;;
9465;SDS011;4771;48.726;9.006;2023-03-14T14:23:42;2.67;;;1.10;;
9465;SDS011;4771;48.726;9.006;2023-03-14T14:26:13;2.80;;;1.20;;
9465;SDS011;4771;48.726;9.006;2023-03-14T14:28:44;1.80;;;0.90;;
9465;SDS011;4771;48.726;9.006;2023-03-14T14:31:19;2.20;;;1.00;;
9465;SDS011;4771;48.726;9.006;2023-03-14T14:33:53;3.20;;;1.10;;
9465;SDS011;4771;48.726;9.006;2023-03-14T14:36:22;2.90;;;0.90;;
9465;SDS011;4771;48.726;9.006;2023-03-14T14:38:56;1.33;;;1.00;;
9465;SDS011;4771;48.726;9.006;2023-03-14T14:41:28;2.97;;;1.10;;
9465;SDS011;4771;48.726;9.006;2023-03-14T14:43:57;3.60;;;1.00;;
9465;SDS011;4771;48.726;9.006;2023-03-14T14:46:27;1.80;;;0.87;;
9465;SDS011;4771;48.726;9.006;2023-03-14T14:48:56;2.30;;;1.10;;
9465;SDS011;4771;48.726;9.006;2023-03-14T14:51:31;5.70;;;1.30;;
9465;SDS011;4771;48.726;9.006;2023-03-14T14:54:04;4.10;;;1.00;;
9465;SDS011;4771;48.726;9.006;2023-03-14T14:56:37;3.87;;;1.43;;
9465;SDS011;4771;48.726;9.006;2023-03-14T14:59:05;2.40;;;1.17;;
9465;SDS011;4771;48.726;9.006;2023-03-14T15:01:36;5.67;;;1.30;;
9465;SDS011;4771;48.726;9.006;2023-03-14T15:04:13;2.57;;;1.07;;
9465;SDS011;4771;48.726;9.006;2023-03-14T15:06:42;2.50;;;1.10;;
9465;SDS011;4771;48.726;9.006;2023-03-14T15:09:10;7.37;;;1.47;;
9465;SDS011;4771;48.726;9.006;2023-03-14T15:11:38;3.43;;;1.20;;
9465;SDS011;4771;48.726;9.006;2023-03-14T15:14:05;2.90;;;1.00;;
9465;SDS011;4771;48.726;9.006;2023-03-14T15:16:32;3.00;;;1.03;;
9465;SDS011;4771;48.726;9.006;2023-03-14T15:19:01;3.60;;;1.40;;
9465;SDS011;4771;48.726;9.006;2023-03-14T15:21:32;2.77;;;1.20;;
9465;SDS011;4771;48.726;9.006;2023-03-14T15:23:59;6.20;;;1.30;;
9465;SDS011;4771;48.726;9.006;2023-03-14T15:26:26;4.17;;;1.20;;
9465;SDS011;4771;48.726;9.006;2023-03-14T15:28:54;2.13;;;1.10;;
9465;SDS011;4771;48.726;9.006;2023-03-14T15:31:21;4.67;;;1.10;;
9465;SDS011;4771;48.726;9.006;2023-03-14T15:33:48;6.40;;;1.23;;
9465;SDS011;4771;48.726;9.006;2023-03-14T15:36:19;2.97;;;1.23;;
9465;SDS011;4771;48.726;9.006;2023-03-14T15:38:48;3.73;;;1.30;;
9465;SDS011;4771;48.726;9.006;2023-03-14T15:41:16;1.93;;;1.00;;
9465;SDS011;4771;48.726;9.006;2023-03-14T15:43:43;4.13;;;1.13;;
9465;SDS011;4771;48.726;9.006;2023-03-14T15:46:10;3.03;;;1.13;;
9465;SDS011;4771;48.726;9.006;2023-03-14T15:48:37;5.47;;;1.57;;
9465;SDS011;4771;48.726;9.006;2023-03-14T15:51:04;5.37;;;1.70;;
9465;SDS011;4771;48.726;9.006;2023-03-14T15:53:33;4.73;;;1.40;;
9465;SDS011;4771;48.726;9.006;2023-03-14T15:56:01;4.70;;;1.60;;
9465;SDS011;4771;48.726;9.006;2023-03-14T15:58:29;5.20;;;1.23;;
9465;SDS011;4771;48.726;9.006;2023-03-14T16:00:59;2.83;;;1.50;;